sensor_id;sensor_type;location;lat;lon;timestamp;P1;durP1;ratioP1;P2;durP2;ratioP2
22068;SDS011;13887;57.196;-2.100;2023-04-24T00:01:25;11.63;;;11.23;;
22068;SDS011;13887;57.196;-2.100;2023-04-24T00:03:52;11.17;;;10.87;;
22068;SDS011;13887;57.196;-2.100;2023-04-24T00:06:19;12.10;;;11.70;;
22068;SDS011;13887;57.196;-2.100;2023-04-24T00:08:46;11.93;;;11.53;;
22068;SDS011;13887;57.196;-2.100;2023-04-24T00:11:12;12.63;;;12.23;;
22068;SDS011;13887;57.196;-2.100;2023-04-24T00:13:39;13.00;;;12.60;;
22068;SDS011;13887;57.196;-2.100;2023-04-24T00:16:06;12.80;;;12.40;;
22068;SDS011;13887;57.196;-2.100;2023-04-24T00:18:33;12.90;;;12.50;;
22068;SDS011;13887;57.196;-2.100;2023-04-24T00:21:00;13.30;;;12.90;;
22068;SDS011;13887;57.196;-2.100;2023-04-24T00:23:27;13.17;;;12.77;;
22068;SDS011;13887;57.196;-2.100;2023-04-24T00:25:54;12.80;;;12.40;;
22068;SDS011;13887;57.196;-2.100;2023-04-24T00:28:21;13.20;;;12.80;;
22068;SDS011;13887;57.196;-2.100;2023-04-24T00:30:48;12.90;;;12.50;;
22068;SDS011;13887;57.196;-2.100;2023-04-24T00:33:15;12.80;;;12.40;;
22068;SDS011;13887;57.196;-2.100;2023-04-24T00:35:42;12.47;;;12.07;;
22068;SDS011;13887;57.196;-2.100;2023-04-24T00:38:09;13.00;;;12.60;;
22068;SDS011;13887;57.196;-2.100;2023-04-24T00:40:36;12.27;;;11.87;;
22068;SDS011;13887;57.196;-2.100;2023-04-24T00:43:03;12.67;;;12.27;;
22068;SDS011;13887;57.196;-2.100;2023-04-24T00:45:30;12.87;;;12.47;;
22068;SDS011;13887;57.196;-2.100;2023-04-24T00:47:57;12.70;;;12.30;;
22068;SDS011;13887;57.196;-2.100;2023-04-24T00:50:25;12.40;;;12.00;;
22068;SDS011;13887;57.196;-2.100;2023-04-24T00:52:52;12.80;;;12.40;;
22068;SDS011;13887;57.196;-2.100;2023-04-24T00:55:19;12.50;;;12.10;;
22068;SDS011;13887;57.196;-2.100;2023-04-24T00:57:46;12.60;;;12.20;;
22068;SDS011;13887;57.196;-2.100;2023-04-24T01:00:15;13.10;;;12.70;;
22068;SDS011;13887;57.196;-2.100;2023-04-24T01:02:45;12.97;;;12.57;;
22068;SDS011;13887;57.196;-2.100;2023-04-24T01:05:13;13.20;;;12.80;;
22068;SDS011;13887;57.196;-2.100;2023-04-24T01:07:43;13.40;;;12.90;;
22068;SDS011;13887;57.196;-2.100;2023-04-24T01:10:13;12.60;;;12.20;;
22068;SDS011;13887;57.196;-2.100;2023-04-24T01:12:40;12.80;;;12.40;;
22068;SDS011;13887;57.196;-2.100;2023-04-24T01:15:08;12.87;;;12.47;;
22068;SDS011;13887;57.196;-2.100;2023-04-24T01:17:35;12.60;;;12.20;;
22068;SDS011;13887;57.196;-2.100;2023-04-24T01:20:02;13.00;;;12.60;;
22068;SDS011;13887;57.196;-2.100;2023-04-24T01:22:35;13.00;;;12.60;;
22068;SDS011;13887;57.196;-2.100;2023-04-24T01:25:02;13.00;;;12.60;;
22068;SDS011;13887;57.196;-2.100;2023-04-24T01:27:30;13.37;;;12.87;;
22068;SDS011;13887;57.196;-2.100;2023-04-24T01:29:57;13.30;;;12.87;;
22068;SDS011;13887;57.196;-2.100;2023-04-24T01:32:24;13.03;;;12.63;;
22068;SDS011;13887;57.196;-2.100;2023-04-24T01:34:51;13.40;;;12.90;;
22068;SDS011;13887;57.196;-2.100;2023-04-24T01:37:18;13.07;;;12.67;;
22068;SDS011;13887;57.196;-2.100;2023-04-24T01:39:45;13.13;;;12.73;;
22068;SDS011;13887;57.196;-2.100;2023-04-24T01:42:12;13.43;;;12.97;;
22068;SDS011;13887;57.196;-2.100;2023-04-24T01:44:41;13.00;;;12.60;;
22068;SDS011;13887;57.196;-2.100;2023-04-24T01:47:08;13.43;;;12.93;;
22068;SDS011;13887;57.196;-2.100;2023-04-24T01:49:36;13.27;;;12.87;;
22068;SDS011;13887;57.196;-2.100;2023-04-24T01:52:05;13.07;;;12.67;;
22068;SDS011;13887;57.196;-2.100;2023-04-24T01:54:32;13.27;;;12.87;;
22068;SDS011;13887;57.196;-2.100;2023-04-24T01:57:00;13.30;;;12.90;;
22068;SDS011;13887;57.196;-2.100;2023-04-24T01:59:29;12.90;;;12.50;;
22068;SDS011;13887;57.196;-2.100;2023-04-24T02:01:57;13.30;;;12.90;;
22068;SDS011;13887;57.196;-2.100;2023-04-24T02:04:24;13.20;;;12.80;;
22068;SDS011;13887;57.196;-2.100;2023-04-24T02:06:51;12.70;;;12.30;;
22068;SDS011;13887;57.196;-2.100;2023-04-24T02:09:17;13.13;;;12.73;;
22068;SDS011;13887;57.196;-2.100;2023-04-24T02:11:44;13.23;;;12.83;;
22068;SDS011;13887;57.196;-2.100;2023-04-24T02:14:11;13.20;;;12.80;;
22068;SDS011;13887;57.196;-2.100;2023-04-24T02:16:39;13.33;;;12.90;;
22068;SDS011;13887;57.196;-2.100;2023-04-24T02:19:06;13.23;;;12.83;;
22068;SDS011;13887;57.196;-2.100;2023-04-24T02:21:33;13.27;;;12.87;;
22068;SDS011;13887;57.196;-2.100;2023-04-24T02:24:00;13.40;;;12.93;;
22068;SDS011;13887;57.196;-2.100;2023-04-24T02:26:27;12.90;;;12.50;;
22068;SDS011;13887;57.196;-2.100;2023-04-24T02:28:54;12.70;;;12.30;;
22068;SDS011;13887;57.196;-2.100;2023-04-24T02:31:21;13.33;;;12.87;;
22068;SDS011;13887;57.196;-2.100;2023-04-24T02:33:48;13.67;;;13.17;;
22068;SDS011;13887;57.196;-2.100;2023-04-24T02:36:15;13.00;;;12.60;;
22068;SDS011;13887;57.196;-2.100;2023-04-24T02:38:42;13.00;;;12.60;;
22068;SDS011;13887;57.196;-2.100;2023-04-24T02:41:08;13.57;;;13.07;;
22068;SDS011;13887;57.196;-2.100;2023-04-24T02:43:36;12.87;;;12.47;;
22068;SDS011;13887;57.196;-2.100;2023-04-24T02:46:03;13.50;;;13.03;;
22068;SDS011;13887;57.196;-2.100;2023-04-24T02:48:30;13.10;;;12.70;;
22068;SDS011;13887;57.196;-2.100;2023-04-24T02:50:57;13.17;;;12.77;;
22068;SDS011;13887;57.196;-2.100;2023-04-24T02:53:24;13.43;;;12.97;;
22068;SDS011;13887;57.196;-2.100;2023-04-24T02:55:51;13.30;;;12.87;;
22068;SDS011;13887;57.196;-2.100;2023-04-24T02:58:18;13.17;;;12.77;;
22068;SDS011;13887;57.196;-2.100;2023-04-24T03:00:46;13.53;;;13.03;;
22068;SDS011;13887;57.196;-2.100;2023-04-24T03:03:14;13.40;;;12.90;;
22068;SDS011;13887;57.196;-2.100;2023-04-24T03:05:41;12.97;;;12.57;;
22068;SDS011;13887;57.196;-2.100;2023-04-24T03:08:08;13.90;;;13.40;;
22068;SDS011;13887;57.196;-2.100;2023-04-24T03:10:36;13.33;;;12.83;;
22068;SDS011;13887;57.196;-2.100;2023-04-24T03:13:03;13.77;;;13.27;;
22068;SDS011;13887;57.196;-2.100;2023-04-24T03:15:30;13.90;;;13.40;;
22068;SDS011;13887;57.196;-2.100;2023-04-24T03:17:58;13.60;;;13.10;;
22068;SDS011;13887;57.196;-2.100;2023-04-24T03:20:25;13.90;;;13.40;;
22068;SDS011;13887;57.196;-2.100;2023-04-24T03:22:53;13.47;;;12.97;;
22068;SDS011;13887;57.196;-2.100;2023-04-24T03:25:20;13.87;;;13.37;;
22068;SDS011;13887;57.196;-2.100;2023-04-24T03:27:47;13.87;;;13.37;;
22068;SDS011;13887;57.196;-2.100;2023-04-24T03:30:24;13.40;;;12.90;;
22068;SDS011;13887;57.196;-2.100;2023-04-24T03:32:56;13.10;;;12.70;;
22068;SDS011;13887;57.196;-2.100;2023-04-24T03:35:27;13.60;;;13.10;;
22068;SDS011;13887;57.196;-2.100;2023-04-24T03:37:55;13.20;;;12.80;;
22068;SDS011;13887;57.196;-2.100;2023-04-24T03:40:40;13.40;;;12.90;;
22068;SDS011;13887;57.196;-2.100;2023-04-24T03:43:30;13.57;;;13.07;;
22068;SDS011;13887;57.196;-2.100;2023-04-24T03:46:00;13.57;;;13.07;;
22068;SDS011;13887;57.196;-2.100;2023-04-24T03:48:28;13.70;;;13.20;;
22068;SDS011;13887;57.196;-2.100;2023-04-24T03:50:56;13.77;;;13.27;;
22068;SDS011;13887;57.196;-2.100;2023-04-24T03:53:23;14.10;;;13.60;;
22068;SDS011;13887;57.196;-2.100;2023-04-24T03:55:50;14.20;;;13.70;;
22068;SDS011;13887;57.196;-2.100;2023-04-24T03:58:17;14.10;;;13.60;;
22068;SDS011;13887;57.196;-2.100;2023-04-24T04:00:44;13.63;;;13.13;;
22068;SDS011;13887;57.196;-2.100;2023-04-24T04:03:41;14.10;;;13.60;;
22068;SDS011;13887;57.196;-2.100;2023-04-24T04:06:09;14.40;;;13.90;;
22068;SDS011;13887;57.196;-2.100;2023-04-24T04:08:37;14.57;;;14.07;;
22068;SDS011;13887;57.196;-2.100;2023-04-24T04:11:04;13.87;;;13.37;;
22068;SDS011;13887;57.196;-2.100;2023-04-24T04:13:31;14.07;;;13.57;;
22068;SDS011;13887;57.196;-2.100;2023-04-24T04:15:58;14.20;;;13.70;;
22068;SDS011;13887;57.196;-2.100;2023-04-24T04:18:25;13.63;;;13.13;;
22068;SDS011;13887;57.196;-2.100;2023-04-24T04:20:52;13.90;;;13.40;;
22068;SDS011;13887;57.196;-2.100;2023-04-24T04:23:19;13.93;;;13.43;;
22068;SDS011;13887;57.196;-2.100;2023-04-24T04:26:06;14.00;;;13.50;;
22068;SDS011;13887;57.196;-2.100;2023-04-24T04:28:53;13.93;;;13.43;;
22068;SDS011;13887;57.196;-2.100;2023-04-24T04:31:20;13.83;;;13.33;;
22068;SDS011;13887;57.196;-2.100;2023-04-24T04:33:48;14.10;;;13.60;;
22068;SDS011;13887;57.196;-2.100;2023-04-24T04:36:15;13.97;;;13.47;;
22068;SDS011;13887;57.196;-2.100;2023-04-24T04:38:48;13.97;;;13.47;;
22068;SDS011;13887;57.196;-2.100;2023-04-24T04:41:35;13.87;;;13.37;;
22068;SDS011;13887;57.196;-2.100;2023-04-24T04:44:02;14.50;;;14.00;;
22068;SDS011;13887;57.196;-2.100;2023-04-24T04:46:31;14.10;;;13.60;;
22068;SDS011;13887;57.196;-2.100;2023-04-24T04:49:08;14.30;;;13.80;;
22068;SDS011;13887;57.196;-2.100;2023-04-24T04:51:35;14.50;;;14.00;;
22068;SDS011;13887;57.196;-2.100;2023-04-24T04:54:02;13.90;;;13.40;;
22068;SDS011;13887;57.196;-2.100;2023-04-24T04:56:29;14.47;;;13.97;;
22068;SDS011;13887;57.196;-2.100;2023-04-24T04:58:59;14.27;;;13.77;;
22068;SDS011;13887;57.196;-2.100;2023-04-24T05:01:26;14.00;;;13.50;;
22068;SDS011;13887;57.196;-2.100;2023-04-24T05:03:54;14.30;;;13.80;;
22068;SDS011;13887;57.196;-2.100;2023-04-24T05:06:22;14.43;;;13.93;;
22068;SDS011;13887;57.196;-2.100;2023-04-24T05:08:50;14.10;;;13.60;;
22068;SDS011;13887;57.196;-2.100;2023-04-24T05:11:27;13.90;;;13.40;;
22068;SDS011;13887;57.196;-2.100;2023-04-24T05:13:55;14.50;;;14.00;;
22068;SDS011;13887;57.196;-2.100;2023-04-24T05:16:31;13.87;;;13.37;;
22068;SDS011;13887;57.196;-2.100;2023-04-24T05:18:58;13.70;;;13.20;;
22068;SDS011;13887;57.196;-2.100;2023-04-24T05:21:30;13.40;;;12.90;;
22068;SDS011;13887;57.196;-2.100;2023-04-24T05:23:58;13.67;;;13.17;;
22068;SDS011;13887;57.196;-2.100;2023-04-24T05:26:41;14.00;;;13.50;;
22068;SDS011;13887;57.196;-2.100;2023-04-24T05:29:09;13.50;;;13.00;;
22068;SDS011;13887;57.196;-2.100;2023-04-24T05:31:35;13.90;;;13.40;;
22068;SDS011;13887;57.196;-2.100;2023-04-24T05:34:03;13.47;;;12.97;;
22068;SDS011;13887;57.196;-2.100;2023-04-24T05:36:31;13.93;;;13.43;;
22068;SDS011;13887;57.196;-2.100;2023-04-24T05:38:59;13.73;;;13.23;;
22068;SDS011;13887;57.196;-2.100;2023-04-24T05:41:25;13.67;;;13.17;;
22068;SDS011;13887;57.196;-2.100;2023-04-24T05:43:52;14.33;;;13.83;;
22068;SDS011;13887;57.196;-2.100;2023-04-24T05:46:20;14.23;;;13.73;;
22068;SDS011;13887;57.196;-2.100;2023-04-24T05:48:47;13.90;;;13.40;;
22068;SDS011;13887;57.196;-2.100;2023-04-24T05:51:14;13.77;;;13.27;;
22068;SDS011;13887;57.196;-2.100;2023-04-24T05:53:41;13.50;;;13.00;;
22068;SDS011;13887;57.196;-2.100;2023-04-24T05:56:08;13.63;;;13.13;;
22068;SDS011;13887;57.196;-2.100;2023-04-24T05:58:35;14.23;;;13.73;;
22068;SDS011;13887;57.196;-2.100;2023-04-24T06:01:04;13.80;;;13.30;;
22068;SDS011;13887;57.196;-2.100;2023-04-24T06:03:31;14.13;;;13.63;;
22068;SDS011;13887;57.196;-2.100;2023-04-24T06:06:01;13.87;;;13.37;;
22068;SDS011;13887;57.196;-2.100;2023-04-24T06:08:29;14.80;;;14.30;;
22068;SDS011;13887;57.196;-2.100;2023-04-24T06:10:55;14.20;;;13.70;;
22068;SDS011;13887;57.196;-2.100;2023-04-24T06:13:23;14.90;;;14.40;;
22068;SDS011;13887;57.196;-2.100;2023-04-24T06:16:09;14.40;;;13.90;;
22068;SDS011;13887;57.196;-2.100;2023-04-24T06:18:39;14.80;;;14.30;;
22068;SDS011;13887;57.196;-2.100;2023-04-24T06:21:06;14.50;;;14.00;;
22068;SDS011;13887;57.196;-2.100;2023-04-24T06:23:33;14.10;;;13.60;;
22068;SDS011;13887;57.196;-2.100;2023-04-24T06:26:00;14.50;;;14.00;;
22068;SDS011;13887;57.196;-2.100;2023-04-24T06:28:27;13.87;;;13.37;;
22068;SDS011;13887;57.196;-2.100;2023-04-24T06:30:54;14.07;;;13.57;;
22068;SDS011;13887;57.196;-2.100;2023-04-24T06:33:21;14.17;;;13.67;;
22068;SDS011;13887;57.196;-2.100;2023-04-24T06:35:49;14.10;;;13.60;;
22068;SDS011;13887;57.196;-2.100;2023-04-24T06:38:16;14.23;;;13.73;;
22068;SDS011;13887;57.196;-2.100;2023-04-24T06:40:43;14.20;;;13.70;;
22068;SDS011;13887;57.196;-2.100;2023-04-24T06:43:10;13.97;;;13.47;;
22068;SDS011;13887;57.196;-2.100;2023-04-24T06:45:37;13.40;;;12.90;;
22068;SDS011;13887;57.196;-2.100;2023-04-24T06:48:06;13.63;;;13.13;;
22068;SDS011;13887;57.196;-2.100;2023-04-24T06:50:33;13.70;;;13.20;;
22068;SDS011;13887;57.196;-2.100;2023-04-24T06:53:00;13.17;;;12.77;;
22068;SDS011;13887;57.196;-2.100;2023-04-24T06:55:26;12.83;;;12.43;;
22068;SDS011;13887;57.196;-2.100;2023-04-24T06:57:53;13.80;;;13.30;;
22068;SDS011;13887;57.196;-2.100;2023-04-24T07:00:20;12.87;;;12.47;;
22068;SDS011;13887;57.196;-2.100;2023-04-24T07:02:47;12.67;;;12.27;;
22068;SDS011;13887;57.196;-2.100;2023-04-24T07:05:14;12.80;;;12.40;;
22068;SDS011;13887;57.196;-2.100;2023-04-24T07:07:42;12.63;;;12.23;;
22068;SDS011;13887;57.196;-2.100;2023-04-24T07:10:09;13.57;;;13.07;;
22068;SDS011;13887;57.196;-2.100;2023-04-24T07:12:36;13.60;;;13.10;;
22068;SDS011;13887;57.196;-2.100;2023-04-24T07:15:04;13.20;;;12.80;;
22068;SDS011;13887;57.196;-2.100;2023-04-24T07:17:32;13.50;;;13.00;;
22068;SDS011;13887;57.196;-2.100;2023-04-24T07:20:01;13.57;;;13.07;;
22068;SDS011;13887;57.196;-2.100;2023-04-24T07:22:27;13.90;;;13.40;;
22068;SDS011;13887;57.196;-2.100;2023-04-24T07:24:54;13.80;;;13.30;;
22068;SDS011;13887;57.196;-2.100;2023-04-24T07:27:21;13.60;;;13.10;;
22068;SDS011;13887;57.196;-2.100;2023-04-24T07:29:48;12.93;;;12.53;;
22068;SDS011;13887;57.196;-2.100;2023-04-24T07:32:15;13.20;;;12.80;;
22068;SDS011;13887;57.196;-2.100;2023-04-24T07:34:42;12.93;;;12.53;;
22068;SDS011;13887;57.196;-2.100;2023-04-24T07:37:09;13.20;;;12.80;;
22068;SDS011;13887;57.196;-2.100;2023-04-24T07:39:36;13.37;;;12.97;;
22068;SDS011;13887;57.196;-2.100;2023-04-24T07:42:03;12.57;;;12.17;;
22068;SDS011;13887;57.196;-2.100;2023-04-24T07:44:30;13.10;;;12.70;;
22068;SDS011;13887;57.196;-2.100;2023-04-24T07:46:58;12.97;;;12.57;;
22068;SDS011;13887;57.196;-2.100;2023-04-24T07:49:25;12.63;;;12.23;;
22068;SDS011;13887;57.196;-2.100;2023-04-24T07:51:52;12.90;;;12.50;;
22068;SDS011;13887;57.196;-2.100;2023-04-24T07:54:19;13.20;;;12.80;;
22068;SDS011;13887;57.196;-2.100;2023-04-24T07:56:46;13.20;;;12.80;;
22068;SDS011;13887;57.196;-2.100;2023-04-24T07:59:13;13.67;;;13.17;;
22068;SDS011;13887;57.196;-2.100;2023-04-24T08:01:40;14.23;;;13.73;;
22068;SDS011;13887;57.196;-2.100;2023-04-24T08:04:07;13.13;;;12.73;;
22068;SDS011;13887;57.196;-2.100;2023-04-24T08:06:34;13.53;;;13.03;;
22068;SDS011;13887;57.196;-2.100;2023-04-24T08:09:01;13.17;;;12.77;;
22068;SDS011;13887;57.196;-2.100;2023-04-24T08:11:29;12.70;;;12.30;;
22068;SDS011;13887;57.196;-2.100;2023-04-24T08:13:55;12.90;;;12.50;;
22068;SDS011;13887;57.196;-2.100;2023-04-24T08:16:22;12.50;;;12.10;;
22068;SDS011;13887;57.196;-2.100;2023-04-24T08:18:52;12.70;;;12.30;;
22068;SDS011;13887;57.196;-2.100;2023-04-24T08:21:19;13.00;;;12.60;;
22068;SDS011;13887;57.196;-2.100;2023-04-24T08:23:47;12.80;;;12.40;;
22068;SDS011;13887;57.196;-2.100;2023-04-24T08:26:13;13.50;;;13.00;;
22068;SDS011;13887;57.196;-2.100;2023-04-24T08:28:40;12.93;;;12.53;;
22068;SDS011;13887;57.196;-2.100;2023-04-24T08:31:08;14.10;;;13.60;;
22068;SDS011;13887;57.196;-2.100;2023-04-24T08:33:35;13.83;;;13.33;;
22068;SDS011;13887;57.196;-2.100;2023-04-24T08:36:03;13.60;;;13.10;;
22068;SDS011;13887;57.196;-2.100;2023-04-24T08:38:31;12.90;;;12.50;;
22068;SDS011;13887;57.196;-2.100;2023-04-24T08:40:58;13.10;;;12.70;;
22068;SDS011;13887;57.196;-2.100;2023-04-24T08:43:26;14.00;;;13.50;;
22068;SDS011;13887;57.196;-2.100;2023-04-24T08:45:55;13.40;;;12.90;;
22068;SDS011;13887;57.196;-2.100;2023-04-24T08:48:23;13.70;;;13.20;;
22068;SDS011;13887;57.196;-2.100;2023-04-24T08:50:57;13.63;;;13.13;;
22068;SDS011;13887;57.196;-2.100;2023-04-24T08:53:25;12.83;;;12.43;;
22068;SDS011;13887;57.196;-2.100;2023-04-24T08:55:53;13.70;;;13.20;;
22068;SDS011;13887;57.196;-2.100;2023-04-24T08:58:22;13.03;;;12.63;;
22068;SDS011;13887;57.196;-2.100;2023-04-24T09:00:53;13.10;;;12.67;;
22068;SDS011;13887;57.196;-2.100;2023-04-24T09:03:21;13.27;;;12.83;;
22068;SDS011;13887;57.196;-2.100;2023-04-24T09:05:49;13.00;;;12.60;;
22068;SDS011;13887;57.196;-2.100;2023-04-24T09:08:18;12.37;;;11.97;;
22068;SDS011;13887;57.196;-2.100;2023-04-24T09:10:45;13.30;;;12.83;;
22068;SDS011;13887;57.196;-2.100;2023-04-24T09:13:16;12.90;;;12.50;;
22068;SDS011;13887;57.196;-2.100;2023-04-24T09:15:45;13.00;;;12.60;;
22068;SDS011;13887;57.196;-2.100;2023-04-24T09:18:13;13.67;;;13.17;;
22068;SDS011;13887;57.196;-2.100;2023-04-24T09:23:35;13.13;;;12.73;;
22068;SDS011;13887;57.196;-2.100;2023-04-24T09:26:02;13.57;;;13.07;;
22068;SDS011;13887;57.196;-2.100;2023-04-24T09:28:37;13.40;;;12.90;;
22068;SDS011;13887;57.196;-2.100;2023-04-24T09:31:09;14.10;;;13.60;;
22068;SDS011;13887;57.196;-2.100;2023-04-24T09:33:40;13.80;;;13.30;;
22068;SDS011;13887;57.196;-2.100;2023-04-24T09:36:35;13.87;;;13.37;;
22068;SDS011;13887;57.196;-2.100;2023-04-24T09:39:05;13.70;;;13.20;;
22068;SDS011;13887;57.196;-2.100;2023-04-24T09:41:35;13.20;;;12.70;;
22068;SDS011;13887;57.196;-2.100;2023-04-24T09:44:13;14.03;;;13.53;;
22068;SDS011;13887;57.196;-2.100;2023-04-24T09:46:41;13.30;;;12.80;;
22068;SDS011;13887;57.196;-2.100;2023-04-24T09:49:11;13.87;;;13.37;;
22068;SDS011;13887;57.196;-2.100;2023-04-24T09:51:41;13.80;;;13.30;;
22068;SDS011;13887;57.196;-2.100;2023-04-24T09:54:15;14.17;;;13.67;;
22068;SDS011;13887;57.196;-2.100;2023-04-24T09:56:50;13.53;;;13.03;;
22068;SDS011;13887;57.196;-2.100;2023-04-24T09:59:18;13.63;;;13.13;;
22068;SDS011;13887;57.196;-2.100;2023-04-24T10:01:45;13.90;;;13.40;;
22068;SDS011;13887;57.196;-2.100;2023-04-24T10:04:18;13.40;;;12.90;;
22068;SDS011;13887;57.196;-2.100;2023-04-24T10:06:47;15.10;;;14.50;;
22068;SDS011;13887;57.196;-2.100;2023-04-24T10:09:16;14.53;;;14.03;;
22068;SDS011;13887;57.196;-2.100;2023-04-24T10:11:53;14.57;;;14.07;;
22068;SDS011;13887;57.196;-2.100;2023-04-24T10:14:24;13.97;;;13.47;;
22068;SDS011;13887;57.196;-2.100;2023-04-24T10:16:54;14.20;;;13.70;;
22068;SDS011;13887;57.196;-2.100;2023-04-24T10:19:25;14.17;;;13.67;;
22068;SDS011;13887;57.196;-2.100;2023-04-24T10:21:52;14.40;;;13.90;;
22068;SDS011;13887;57.196;-2.100;2023-04-24T10:24:21;14.33;;;13.83;;
22068;SDS011;13887;57.196;-2.100;2023-04-24T10:26:48;14.20;;;13.70;;
22068;SDS011;13887;57.196;-2.100;2023-04-24T10:29:16;14.63;;;14.13;;
22068;SDS011;13887;57.196;-2.100;2023-04-24T10:31:44;14.83;;;14.23;;
22068;SDS011;13887;57.196;-2.100;2023-04-24T10:34:13;15.23;;;14.63;;
22068;SDS011;13887;57.196;-2.100;2023-04-24T10:36:43;13.60;;;13.10;;
22068;SDS011;13887;57.196;-2.100;2023-04-24T10:39:14;13.47;;;12.97;;
22068;SDS011;13887;57.196;-2.100;2023-04-24T10:41:42;13.97;;;13.47;;
22068;SDS011;13887;57.196;-2.100;2023-04-24T10:44:10;13.77;;;13.27;;
22068;SDS011;13887;57.196;-2.100;2023-04-24T10:46:39;12.83;;;12.43;;
22068;SDS011;13887;57.196;-2.100;2023-04-24T10:49:11;13.60;;;13.10;;
22068;SDS011;13887;57.196;-2.100;2023-04-24T10:51:44;13.70;;;13.20;;
22068;SDS011;13887;57.196;-2.100;2023-04-24T10:54:24;13.67;;;13.17;;
22068;SDS011;13887;57.196;-2.100;2023-04-24T10:56:56;13.70;;;13.20;;
22068;SDS011;13887;57.196;-2.100;2023-04-24T10:59:49;12.90;;;12.50;;
22068;SDS011;13887;57.196;-2.100;2023-04-24T11:02:20;13.03;;;12.63;;
22068;SDS011;13887;57.196;-2.100;2023-04-24T11:05:07;13.07;;;12.67;;
22068;SDS011;13887;57.196;-2.100;2023-04-24T11:10:44;13.37;;;12.97;;
22068;SDS011;13887;57.196;-2.100;2023-04-24T11:13:16;13.50;;;13.00;;
22068;SDS011;13887;57.196;-2.100;2023-04-24T11:18:41;13.90;;;13.40;;
22068;SDS011;13887;57.196;-2.100;2023-04-24T11:21:12;13.90;;;13.40;;
22068;SDS011;13887;57.196;-2.100;2023-04-24T11:23:39;14.03;;;13.53;;
22068;SDS011;13887;57.196;-2.100;2023-04-24T11:26:17;13.50;;;13.00;;
22068;SDS011;13887;57.196;-2.100;2023-04-24T11:28:47;13.10;;;12.70;;
22068;SDS011;13887;57.196;-2.100;2023-04-24T11:34:08;14.00;;;13.50;;
22068;SDS011;13887;57.196;-2.100;2023-04-24T11:36:36;13.50;;;13.00;;
22068;SDS011;13887;57.196;-2.100;2023-04-24T11:39:03;13.63;;;13.13;;
22068;SDS011;13887;57.196;-2.100;2023-04-24T11:41:31;13.47;;;12.97;;
22068;SDS011;13887;57.196;-2.100;2023-04-24T11:43:59;13.80;;;13.30;;
22068;SDS011;13887;57.196;-2.100;2023-04-24T11:46:27;13.73;;;13.23;;
22068;SDS011;13887;57.196;-2.100;2023-04-24T11:48:56;13.67;;;13.17;;
22068;SDS011;13887;57.196;-2.100;2023-04-24T11:51:23;13.13;;;12.73;;
22068;SDS011;13887;57.196;-2.100;2023-04-24T11:54:02;13.10;;;12.70;;
22068;SDS011;13887;57.196;-2.100;2023-04-24T11:56:34;13.60;;;13.10;;
22068;SDS011;13887;57.196;-2.100;2023-04-24T11:59:03;13.27;;;12.87;;
22068;SDS011;13887;57.196;-2.100;2023-04-24T12:01:41;13.17;;;12.77;;
22068;SDS011;13887;57.196;-2.100;2023-04-24T12:04:09;12.87;;;12.47;;
22068;SDS011;13887;57.196;-2.100;2023-04-24T12:06:37;12.90;;;12.50;;
22068;SDS011;13887;57.196;-2.100;2023-04-24T12:09:04;13.00;;;12.60;;
22068;SDS011;13887;57.196;-2.100;2023-04-24T12:11:52;12.90;;;12.50;;
22068;SDS011;13887;57.196;-2.100;2023-04-24T12:14:23;12.60;;;12.20;;
22068;SDS011;13887;57.196;-2.100;2023-04-24T12:16:50;13.43;;;12.93;;
22068;SDS011;13887;57.196;-2.100;2023-04-24T12:19:21;13.37;;;12.90;;
22068;SDS011;13887;57.196;-2.100;2023-04-24T12:21:58;12.70;;;12.30;;
22068;SDS011;13887;57.196;-2.100;2023-04-24T12:24:30;12.50;;;12.10;;
22068;SDS011;13887;57.196;-2.100;2023-04-24T12:26:58;12.77;;;12.37;;
22068;SDS011;13887;57.196;-2.100;2023-04-24T12:29:25;12.57;;;12.17;;
22068;SDS011;13887;57.196;-2.100;2023-04-24T12:31:52;13.20;;;12.80;;
22068;SDS011;13887;57.196;-2.100;2023-04-24T12:34:22;13.30;;;12.90;;
22068;SDS011;13887;57.196;-2.100;2023-04-24T12:36:51;14.20;;;13.70;;
22068;SDS011;13887;57.196;-2.100;2023-04-24T12:39:18;14.07;;;13.57;;
22068;SDS011;13887;57.196;-2.100;2023-04-24T12:41:50;13.20;;;12.80;;
22068;SDS011;13887;57.196;-2.100;2023-04-24T12:44:32;13.63;;;13.13;;
22068;SDS011;13887;57.196;-2.100;2023-04-24T12:47:01;13.20;;;12.80;;
22068;SDS011;13887;57.196;-2.100;2023-04-24T12:49:29;13.43;;;12.97;;
22068;SDS011;13887;57.196;-2.100;2023-04-24T12:51:57;12.97;;;12.57;;
22068;SDS011;13887;57.196;-2.100;2023-04-24T12:54:24;13.67;;;13.17;;
22068;SDS011;13887;57.196;-2.100;2023-04-24T12:56:51;13.37;;;12.97;;
22068;SDS011;13887;57.196;-2.100;2023-04-24T12:59:18;13.77;;;13.27;;
22068;SDS011;13887;57.196;-2.100;2023-04-24T13:01:45;13.27;;;12.87;;
22068;SDS011;13887;57.196;-2.100;2023-04-24T13:04:12;13.37;;;12.97;;
22068;SDS011;13887;57.196;-2.100;2023-04-24T13:06:38;13.63;;;13.13;;
22068;SDS011;13887;57.196;-2.100;2023-04-24T13:09:05;13.27;;;12.87;;
22068;SDS011;13887;57.196;-2.100;2023-04-24T13:11:32;12.57;;;12.17;;
22068;SDS011;13887;57.196;-2.100;2023-04-24T13:13:59;12.40;;;12.00;;
22068;SDS011;13887;57.196;-2.100;2023-04-24T13:16:26;12.73;;;12.33;;
22068;SDS011;13887;57.196;-2.100;2023-04-24T13:18:53;12.43;;;12.03;;
22068;SDS011;13887;57.196;-2.100;2023-04-24T13:21:20;12.50;;;12.10;;
22068;SDS011;13887;57.196;-2.100;2023-04-24T13:23:46;12.50;;;12.10;;
22068;SDS011;13887;57.196;-2.100;2023-04-24T13:26:13;12.80;;;12.40;;
22068;SDS011;13887;57.196;-2.100;2023-04-24T13:28:40;12.50;;;12.10;;
22068;SDS011;13887;57.196;-2.100;2023-04-24T13:31:07;12.97;;;12.57;;
22068;SDS011;13887;57.196;-2.100;2023-04-24T13:33:34;12.70;;;12.30;;
22068;SDS011;13887;57.196;-2.100;2023-04-24T13:36:01;13.20;;;12.80;;
22068;SDS011;13887;57.196;-2.100;2023-04-24T13:38:28;13.20;;;12.80;;
22068;SDS011;13887;57.196;-2.100;2023-04-24T13:40:55;12.50;;;12.10;;
22068;SDS011;13887;57.196;-2.100;2023-04-24T13:43:22;13.00;;;12.60;;
22068;SDS011;13887;57.196;-2.100;2023-04-24T13:45:49;12.73;;;12.33;;
22068;SDS011;13887;57.196;-2.100;2023-04-24T13:48:16;12.80;;;12.40;;
22068;SDS011;13887;57.196;-2.100;2023-04-24T13:50:43;12.43;;;12.03;;
22068;SDS011;13887;57.196;-2.100;2023-04-24T13:53:10;12.40;;;12.00;;
22068;SDS011;13887;57.196;-2.100;2023-04-24T13:55:37;12.43;;;12.03;;
22068;SDS011;13887;57.196;-2.100;2023-04-24T13:58:05;13.20;;;12.80;;
22068;SDS011;13887;57.196;-2.100;2023-04-24T14:00:33;12.50;;;12.10;;
22068;SDS011;13887;57.196;-2.100;2023-04-24T14:02:59;12.77;;;12.37;;
22068;SDS011;13887;57.196;-2.100;2023-04-24T14:05:27;12.37;;;11.97;;
22068;SDS011;13887;57.196;-2.100;2023-04-24T14:07:54;13.00;;;12.60;;
22068;SDS011;13887;57.196;-2.100;2023-04-24T14:10:21;12.57;;;12.17;;
22068;SDS011;13887;57.196;-2.100;2023-04-24T14:12:48;12.73;;;12.33;;
22068;SDS011;13887;57.196;-2.100;2023-04-24T14:15:15;12.90;;;12.50;;
22068;SDS011;13887;57.196;-2.100;2023-04-24T14:17:42;12.80;;;12.40;;
22068;SDS011;13887;57.196;-2.100;2023-04-24T14:20:10;13.10;;;12.70;;
22068;SDS011;13887;57.196;-2.100;2023-04-24T14:22:38;13.30;;;12.87;;
22068;SDS011;13887;57.196;-2.100;2023-04-24T14:25:05;13.10;;;12.70;;
22068;SDS011;13887;57.196;-2.100;2023-04-24T14:27:33;13.43;;;12.97;;
22068;SDS011;13887;57.196;-2.100;2023-04-24T14:30:01;13.80;;;13.30;;